createdAt,value
2023-03-19T00:02:16.337Z,100662.41
2023-03-19T00:04:49.702Z,100644.34
2023-03-19T00:07:19.592Z,100635.69
2023-03-19T00:09:49.150Z,100650.25
2023-03-19T00:12:18.875Z,100661.47
2023-03-19T00:14:48.432Z,100635.56
2023-03-19T00:17:18.028Z,100661.44
2023-03-19T00:19:51.403Z,100671.78
2023-03-19T00:22:20.986Z,100650.31
2023-03-19T00:24:50.574Z,100672.56
2023-03-19T00:27:20.149Z,100665.66
2023-03-19T00:29:50.134Z,100667.38
2023-03-19T00:32:20.204Z,100674.19
2023-03-19T00:34:52.995Z,100669.09
2023-03-19T00:37:22.605Z,100675.75
2023-03-19T00:39:52.152Z,100649.03
2023-03-19T00:42:22.152Z,100664.47
2023-03-19T00:44:51.769Z,100665.28
2023-03-19T00:47:21.366Z,100635.19
2023-03-19T00:49:53.577Z,100665.97
2023-03-19T00:52:23.173Z,100670.03
2023-03-19T00:54:52.940Z,100646.63
2023-03-19T00:57:22.547Z,100668.94
2023-03-19T00:59:53.880Z,100668.94
2023-03-19T01:02:23.556Z,100662.06
2023-03-19T01:04:55.900Z,100641.50
2023-03-19T01:07:25.667Z,100661.22
2023-03-19T01:09:55.486Z,100671.50
2023-03-19T01:12:25.076Z,100651.63
2023-03-19T01:14:54.910Z,100673.94
2023-03-19T01:17:24.531Z,100664.38
2023-03-19T01:19:57.175Z,100663.63
2023-03-19T01:22:27.642Z,100661.84
2023-03-19T01:25:01.628Z,100641.09
2023-03-19T01:27:31.312Z,100663.44
2023-03-19T01:30:01.399Z,100663.41
2023-03-19T01:32:53.979Z,100646.06
2023-03-19T01:35:48.206Z,100629.66
2023-03-19T01:38:19.733Z,100662.19
2023-03-19T01:40:51.049Z,100663.97
2023-03-19T01:43:23.254Z,100671.53
2023-03-19T01:46:04.407Z,100672.28
2023-03-19T01:49:00.335Z,100673.06
2023-03-19T01:51:37.410Z,100654.19
2023-03-19T01:54:35.229Z,100666.97
2023-03-19T01:57:25.662Z,100667.78
2023-03-19T02:00:01.298Z,100665.28
2023-03-19T02:02:47.539Z,100654.06
2023-03-19T02:05:49.052Z,100641.81
2023-03-19T02:08:23.368Z,100665.91
2023-03-19T02:10:56.057Z,100669.28
2023-03-19T02:13:26.455Z,100638.38
2023-03-19T02:15:57.243Z,100662.50
2023-03-19T02:18:28.297Z,100665.78
2023-03-19T02:21:03.322Z,100647.66
2023-03-19T02:23:42.350Z,100645.75
2023-03-19T02:26:21.757Z,100640.50
2023-03-19T02:28:55.313Z,100653.97
2023-03-19T02:31:30.739Z,100642.66
2023-03-19T02:34:02.859Z,100652.31
2023-03-19T02:36:37.600Z,100653.16
2023-03-19T02:39:11.398Z,100660.69
2023-03-19T02:41:44.944Z,100661.56
2023-03-19T02:44:15.747Z,100665.09
2023-03-19T02:46:45.551Z,100665.84
2023-03-19T02:49:15.390Z,100667.63
2023-03-19T02:51:45.040Z,100667.66
2023-03-19T02:54:14.670Z,100657.09
2023-03-19T02:56:46.946Z,100667.19
2023-03-19T02:59:16.557Z,100671.94
2023-03-19T03:01:46.370Z,100648.63
2023-03-19T03:04:16.798Z,100675.03
2023-03-19T03:06:47.696Z,100662.91
2023-03-19T03:09:18.426Z,100652.50
2023-03-19T03:11:51.160Z,100669.94
2023-03-19T03:14:20.813Z,100663.25
2023-03-19T03:16:50.970Z,100653.94
2023-03-19T03:19:21.731Z,100666.88
2023-03-19T03:21:52.088Z,100652.31
2023-03-19T03:24:22.107Z,100669.59
2023-03-19T03:26:54.322Z,100674.81
2023-03-19T03:29:24.178Z,100680.53
2023-03-19T03:31:53.927Z,100674.69
2023-03-19T03:34:23.649Z,100676.41
2023-03-19T03:36:53.406Z,100642.03
2023-03-19T03:39:23.185Z,100671.31
2023-03-19T03:41:55.501Z,100680.84
2023-03-19T03:44:25.528Z,100680.78
2023-03-19T03:46:55.224Z,100679.88
2023-03-19T03:49:25.333Z,100675.44
2023-03-19T03:51:55.752Z,100669.44
2023-03-19T03:54:25.498Z,100685.69
2023-03-19T03:56:57.758Z,100680.75
2023-03-19T03:59:27.662Z,100686.69
2023-03-19T04:01:57.345Z,100683.13
2023-03-19T04:04:27.132Z,100665.97
2023-03-19T04:06:56.796Z,100658.28
2023-03-19T04:09:37.249Z,100674.72
2023-03-19T04:12:11.236Z,100683.28
2023-03-19T04:14:41.004Z,100687.47
2023-03-19T04:17:11.780Z,100670.44
2023-03-19T04:19:43.408Z,100675.44
2023-03-19T04:22:13.098Z,100685.09
2023-03-19T04:24:42.785Z,100681.66
2023-03-19T04:27:15.568Z,100682.50
2023-03-19T04:29:45.484Z,100679.06
2023-03-19T04:32:15.947Z,100684.09
2023-03-19T04:34:45.853Z,100686.66
2023-03-19T04:37:15.511Z,100686.69
2023-03-19T04:39:51.510Z,100649.00
2023-03-19T04:42:24.921Z,100689.50
2023-03-19T04:45:17.865Z,100683.38
2023-03-19T04:47:47.574Z,100680.84
2023-03-19T04:50:18.173Z,100668.97
2023-03-19T04:52:48.207Z,100651.59
2023-03-19T04:55:18.609Z,100676.44
2023-03-19T04:57:59.135Z,100673.94
2023-03-19T05:00:32.157Z,100673.81
2023-03-19T05:03:02.333Z,100683.13
2023-03-19T05:05:34.089Z,100671.00
2023-03-19T05:08:08.749Z,100671.72
2023-03-19T05:10:39.229Z,100674.31
2023-03-19T05:13:11.469Z,100667.53
2023-03-19T05:15:46.589Z,100666.63
2023-03-19T05:18:17.070Z,100688.25
2023-03-19T05:20:47.557Z,100696.13
2023-03-19T05:23:23.749Z,100693.69
2023-03-19T05:26:08.560Z,100692.06
2023-03-19T05:29:03.886Z,100690.41
2023-03-19T05:31:46.239Z,100678.50
2023-03-19T05:34:16.088Z,100692.13
2023-03-19T05:36:45.756Z,100646.50
2023-03-19T05:39:19.877Z,100701.47
2023-03-19T05:41:49.938Z,100680.75
2023-03-19T05:44:26.456Z,100679.06
2023-03-19T05:47:16.468Z,100705.59
2023-03-19T05:49:52.160Z,100699.69
2023-03-19T05:52:22.188Z,100699.78
2023-03-19T05:54:52.573Z,100695.56
2023-03-19T05:57:42.512Z,100657.44
2023-03-19T06:00:21.293Z,100694.59
2023-03-19T06:02:51.723Z,100688.44
2023-03-19T06:05:44.315Z,100708.91
2023-03-19T06:08:23.624Z,100716.97
2023-03-19T06:11:00.705Z,100655.81
2023-03-19T06:13:31.285Z,100690.31
2023-03-19T06:16:12.595Z,100699.03
2023-03-19T06:19:02.714Z,100707.63
2023-03-19T06:21:32.429Z,100674.97
2023-03-19T06:24:05.603Z,100713.56
2023-03-19T06:26:38.405Z,100715.28
2023-03-19T06:29:14.742Z,100685.28
2023-03-19T06:31:49.618Z,100712.16
2023-03-19T06:34:24.418Z,100719.97
2023-03-19T06:36:54.146Z,100713.31
2023-03-19T06:39:24.020Z,100721.97
2023-03-19T06:41:53.742Z,100680.50
2023-03-19T06:44:27.710Z,100728.75
2023-03-19T06:47:00.002Z,100733.03
2023-03-19T06:49:30.012Z,100744.16
2023-03-19T06:51:59.804Z,100729.66
2023-03-19T06:54:29.416Z,100731.34
2023-03-19T06:56:59.173Z,100744.19
2023-03-19T06:59:29.025Z,100702.81
2023-03-19T07:02:02.240Z,100756.03
2023-03-19T07:04:32.340Z,100744.81
2023-03-19T07:07:02.628Z,100758.53
2023-03-19T07:09:32.249Z,100746.56
2023-03-19T07:12:01.916Z,100761.97
2023-03-19T07:14:31.570Z,100726.06
2023-03-19T07:17:03.801Z,100750.34
2023-03-19T07:19:33.514Z,100758.97
2023-03-19T07:22:03.869Z,100749.66
2023-03-19T07:24:33.509Z,100773.00
2023-03-19T07:27:03.313Z,100756.69
2023-03-19T07:29:32.969Z,100759.47
2023-03-19T07:32:05.819Z,100763.94
2023-03-19T07:34:35.757Z,100760.41
2023-03-19T07:37:05.580Z,100753.63
2023-03-19T07:39:35.300Z,100749.38
2023-03-19T07:42:04.930Z,100772.81
2023-03-19T07:44:35.051Z,100774.69
2023-03-19T07:47:16.108Z,100782.66
2023-03-19T07:49:56.181Z,100739.84
2023-03-19T07:52:25.988Z,100780.50
2023-03-19T07:54:55.844Z,100780.75
2023-03-19T07:57:25.839Z,100779.31
2023-03-19T07:59:55.585Z,100753.81
2023-03-19T08:02:28.025Z,100778.19
2023-03-19T08:04:58.643Z,100774.97
2023-03-19T08:07:28.376Z,100767.44
2023-03-19T08:09:58.365Z,100773.75
2023-03-19T08:12:28.410Z,100766.91
2023-03-19T08:14:58.047Z,100780.81
2023-03-19T08:17:30.282Z,100751.69
2023-03-19T08:19:59.926Z,100764.56
2023-03-19T08:22:29.544Z,100774.09
2023-03-19T08:24:59.212Z,100780.97
2023-03-19T08:27:30.655Z,100751.06
2023-03-19T08:30:01.035Z,100789.72
2023-03-19T08:32:33.442Z,100788.09
2023-03-19T08:35:03.202Z,100789.91
2023-03-19T08:37:32.921Z,100769.41
2023-03-19T08:40:02.575Z,100780.63
2023-03-19T08:42:32.290Z,100773.72
2023-03-19T08:45:01.957Z,100753.94
2023-03-19T08:47:34.186Z,100800.44
2023-03-19T08:50:03.832Z,100718.97
2023-03-19T08:52:33.683Z,100787.84
2023-03-19T08:55:03.630Z,100755.31
2023-03-19T08:57:33.355Z,100788.91
2023-03-19T09:00:05.328Z,100791.50
2023-03-19T09:02:37.600Z,100787.31
2023-03-19T09:05:08.038Z,100791.63
2023-03-19T09:07:37.677Z,100758.88
2023-03-19T09:10:08.441Z,100807.91
2023-03-19T09:12:38.064Z,100802.75
2023-03-19T09:15:09.336Z,100785.50
2023-03-19T09:17:41.938Z,100808.69
2023-03-19T09:20:13.156Z,100789.84
2023-03-19T09:22:42.882Z,100764.03
2023-03-19T09:25:13.350Z,100814.72
2023-03-19T09:27:42.965Z,100813.06
2023-03-19T09:30:14.373Z,100817.38
2023-03-19T09:32:46.687Z,100825.94
2023-03-19T09:35:16.469Z,100830.25
2023-03-19T09:37:46.375Z,100823.47
2023-03-19T09:40:25.447Z,100819.16
2023-03-19T09:43:09.453Z,100784.06
2023-03-19T09:45:39.631Z,100832.16
2023-03-19T09:48:18.421Z,100825.31
2023-03-19T09:50:49.559Z,100822.00
2023-03-19T09:53:32.678Z,100842.66
2023-03-19T09:56:05.218Z,100830.78
2023-03-19T09:58:38.820Z,100831.66
2023-03-19T10:01:09.248Z,100841.09
2023-03-19T10:03:49.920Z,100838.53
2023-03-19T10:06:31.919Z,100816.19
2023-03-19T10:09:27.403Z,100841.91
2023-03-19T10:12:11.967Z,100812.75
2023-03-19T10:15:00.356Z,100825.63
2023-03-19T10:17:35.561Z,100832.56
2023-03-19T10:20:13.168Z,100800.81
2023-03-19T10:22:49.016Z,100810.19
2023-03-19T10:25:22.897Z,100835.03
2023-03-19T10:27:59.031Z,100829.88
2023-03-19T10:30:29.103Z,100839.31
2023-03-19T10:33:11.878Z,100831.69
2023-03-19T10:35:47.292Z,100824.91
2023-03-19T10:38:23.720Z,100824.06
2023-03-19T10:41:06.928Z,100799.19
2023-03-19T10:43:37.086Z,100791.44
2023-03-19T10:46:07.125Z,100836.09
2023-03-19T10:48:45.433Z,100766.63
2023-03-19T10:51:19.879Z,100842.19
2023-03-19T10:53:49.692Z,100838.75
2023-03-19T10:56:23.202Z,100837.03
2023-03-19T10:59:03.913Z,100848.19
2023-03-19T11:01:36.576Z,100834.38
2023-03-19T11:04:16.439Z,100854.19
2023-03-19T11:06:52.618Z,100807.81
2023-03-19T11:09:36.999Z,100838.69
2023-03-19T11:12:19.258Z,100859.34
2023-03-19T11:14:50.632Z,100849.91
2023-03-19T11:17:24.193Z,100861.06
2023-03-19T11:19:58.105Z,100862.78
2023-03-19T11:22:32.890Z,100846.50
2023-03-19T11:25:05.510Z,100859.38
2023-03-19T11:27:37.216Z,100843.03
2023-03-19T11:30:15.576Z,100866.22
2023-03-19T11:33:06.586Z,100846.50
2023-03-19T11:35:41.299Z,100862.78
2023-03-19T11:38:22.187Z,100879.09
2023-03-19T11:41:02.220Z,100864.53
2023-03-19T11:43:46.957Z,100855.91
2023-03-19T11:46:27.470Z,100864.50
2023-03-19T11:49:39.356Z,100867.09
2023-03-19T11:52:18.774Z,100849.91
2023-03-19T11:55:05.612Z,100865.38
2023-03-19T11:57:50.709Z,100838.75
2023-03-19T12:00:32.989Z,100864.50
2023-03-19T12:03:31.155Z,100876.50
2023-03-19T12:06:05.595Z,100857.66
2023-03-19T12:08:42.457Z,100874.81
2023-03-19T12:11:23.556Z,100870.50
2023-03-19T12:14:10.396Z,100865.38
2023-03-19T12:16:52.194Z,100872.22
2023-03-19T12:19:46.111Z,100873.97
2023-03-19T12:22:26.629Z,100870.53
2023-03-19T12:25:14.733Z,100870.50
2023-03-19T12:27:54.852Z,100847.34
2023-03-19T12:30:34.907Z,100862.81
2023-03-19T12:33:19.448Z,100823.31
2023-03-19T12:35:53.111Z,100857.66
2023-03-19T12:38:27.849Z,100855.09
2023-03-19T12:41:03.710Z,100861.94
2023-03-19T12:43:40.650Z,100852.50
2023-03-19T12:46:13.746Z,100843.06
2023-03-19T12:48:47.880Z,100847.34
2023-03-19T12:51:22.941Z,100857.63
2023-03-19T12:53:57.377Z,100868.78
2023-03-19T12:56:37.113Z,100850.78
2023-03-19T12:59:19.082Z,100830.19
2023-03-19T13:01:53.974Z,100818.19
2023-03-19T13:04:28.071Z,100850.78
2023-03-19T13:07:01.774Z,100869.66
2023-03-19T13:09:35.383Z,100831.91
2023-03-19T13:12:10.696Z,100855.06
2023-03-19T13:14:52.894Z,100862.81
2023-03-19T13:17:28.822Z,100849.06
2023-03-19T13:19:58.963Z,100855.09
2023-03-19T13:22:31.627Z,100832.75
2023-03-19T13:25:03.662Z,100862.78
2023-03-19T13:27:35.831Z,100862.78
2023-03-19T13:30:22.106Z,100843.06
2023-03-19T13:32:54.728Z,100853.38
2023-03-19T13:35:36.622Z,100849.94
2023-03-19T13:38:15.340Z,100855.06
2023-03-19T13:40:50.122Z,100850.81
2023-03-19T13:43:55.850Z,100835.34
2023-03-19T13:46:45.848Z,100813.88
2023-03-19T13:49:33.837Z,100854.22
2023-03-19T13:52:25.466Z,100847.34
2023-03-19T13:54:59.095Z,100780.41
2023-03-19T13:57:38.534Z,100854.22
2023-03-19T14:00:38.324Z,100842.19
2023-03-19T14:03:09.905Z,100791.56
2023-03-19T14:05:39.777Z,100841.34
2023-03-19T14:08:20.768Z,100842.22
2023-03-19T14:10:55.421Z,100843.06
2023-03-19T14:13:32.665Z,100821.63
2023-03-19T14:16:14.572Z,100801.00
2023-03-19T14:18:46.192Z,100836.16
2023-03-19T14:21:22.118Z,100832.72
2023-03-19T14:23:57.783Z,100829.28
2023-03-19T14:26:31.573Z,100837.88
2023-03-19T14:29:04.169Z,100823.28
2023-03-19T14:31:44.130Z,100828.41
2023-03-19T14:34:23.482Z,100810.34
2023-03-19T14:37:00.591Z,100806.88
2023-03-19T14:39:32.827Z,100831.69
2023-03-19T14:42:16.929Z,100838.56
2023-03-19T14:45:20.727Z,100836.88
2023-03-19T14:48:16.184Z,100842.06
2023-03-19T14:51:02.789Z,100831.81
2023-03-19T14:53:41.130Z,100836.97
2023-03-19T14:56:17.432Z,100836.13
2023-03-19T14:58:57.462Z,100801.78
2023-03-19T15:01:29.607Z,100831.81
2023-03-19T15:04:03.411Z,100842.13
2023-03-19T15:06:36.938Z,100820.66
2023-03-19T15:09:10.491Z,100829.25
2023-03-19T15:11:53.771Z,100831.81
2023-03-19T15:14:40.441Z,100812.94
2023-03-19T15:17:18.903Z,100830.97
2023-03-19T15:19:48.838Z,100788.94
2023-03-19T15:22:23.391Z,100839.59
2023-03-19T15:24:53.233Z,100828.41
2023-03-19T15:27:24.636Z,100831.84
2023-03-19T15:30:06.994Z,100842.13
2023-03-19T15:32:54.180Z,100834.41
2023-03-19T15:35:37.408Z,100849.84
2023-03-19T15:38:11.767Z,100819.78
2023-03-19T15:40:44.075Z,100829.28
2023-03-19T15:43:15.623Z,100834.41
2023-03-19T15:45:51.735Z,100788.03
2023-03-19T15:48:24.912Z,100842.13
2023-03-19T15:51:00.589Z,100837.84
2023-03-19T15:53:35.390Z,100849.88
2023-03-19T15:56:06.873Z,100839.56
2023-03-19T15:58:42.708Z,100855.88
2023-03-19T16:01:16.787Z,100855.91
2023-03-19T16:03:49.394Z,100827.59
2023-03-19T16:06:27.278Z,100836.16
2023-03-19T16:08:59.024Z,100853.34
2023-03-19T16:11:32.377Z,100872.22
2023-03-19T16:14:03.584Z,100872.22
2023-03-19T16:16:38.754Z,100856.75
2023-03-19T16:19:08.520Z,100875.66
2023-03-19T16:21:41.645Z,100873.94
2023-03-19T16:24:24.232Z,100879.97
2023-03-19T16:26:54.987Z,100882.53
2023-03-19T16:29:28.018Z,100889.41
2023-03-19T16:32:03.966Z,100892.00
2023-03-19T16:34:42.586Z,100887.69
2023-03-19T16:37:43.257Z,100867.09
2023-03-19T16:40:43.932Z,100883.38
2023-03-19T16:43:19.885Z,100883.31
2023-03-19T16:45:54.074Z,100896.22
2023-03-19T16:48:26.872Z,100904.81
2023-03-19T16:50:57.466Z,100899.66
2023-03-19T16:53:29.818Z,100891.94
2023-03-19T16:56:01.889Z,100891.03
2023-03-19T16:58:35.064Z,100901.31
2023-03-19T17:01:05.837Z,100903.00
2023-03-19T17:03:38.506Z,100902.16
2023-03-19T17:06:09.565Z,100905.56
2023-03-19T17:08:39.454Z,100916.75
2023-03-19T17:11:14.099Z,100921.00
2023-03-19T17:13:45.321Z,100912.44
2023-03-19T17:16:15.799Z,100924.47
2023-03-19T17:18:48.108Z,100924.47
2023-03-19T17:21:21.227Z,100921.88
2023-03-19T17:23:51.112Z,100927.00
2023-03-19T17:26:25.939Z,100908.97
2023-03-19T17:28:56.894Z,100930.38
2023-03-19T17:31:30.048Z,100924.41
2023-03-19T17:34:04.957Z,100877.13
2023-03-19T17:36:36.051Z,100938.97
2023-03-19T17:39:07.157Z,100922.66
2023-03-19T17:41:36.886Z,100922.59
2023-03-19T17:44:06.975Z,100923.44
2023-03-19T17:46:42.297Z,100950.91
2023-03-19T17:49:22.877Z,100907.78
2023-03-19T17:51:53.757Z,100941.94
2023-03-19T17:54:25.866Z,100959.78
2023-03-19T17:56:56.527Z,100960.50
2023-03-19T17:59:26.569Z,100941.59
2023-03-19T18:01:56.261Z,100916.56
2023-03-19T18:04:28.537Z,100969.03
2023-03-19T18:06:58.992Z,100943.22
2023-03-19T18:09:32.868Z,100953.44
2023-03-19T18:12:02.789Z,100976.53
2023-03-19T18:14:32.433Z,100961.78
2023-03-19T18:17:02.869Z,100976.25
2023-03-19T18:19:37.979Z,100971.16
2023-03-19T18:22:15.537Z,100968.63
2023-03-19T18:24:45.384Z,100978.06
2023-03-19T18:27:15.922Z,100975.56
2023-03-19T18:29:45.605Z,100975.53
2023-03-19T18:32:19.604Z,100994.50
2023-03-19T18:34:51.921Z,100902.50
2023-03-19T18:37:22.501Z,100982.41
2023-03-19T18:39:52.385Z,100987.47
2023-03-19T18:42:23.585Z,100996.00
2023-03-19T18:44:53.473Z,100968.38
2023-03-19T18:47:23.177Z,101009.53
2023-03-19T18:49:57.685Z,101008.72
2023-03-19T18:52:27.811Z,100997.44
2023-03-19T18:54:57.439Z,100975.03
2023-03-19T18:57:27.108Z,101011.22
2023-03-19T18:59:57.062Z,101008.63
2023-03-19T19:02:34.192Z,100996.47
2023-03-19T19:05:07.710Z,100980.72
2023-03-19T19:07:37.364Z,101012.38
2023-03-19T19:10:09.062Z,101030.28
2023-03-19T19:12:40.507Z,101043.84
2023-03-19T19:15:19.754Z,100978.53
2023-03-19T19:17:49.583Z,101025.84
2023-03-19T19:20:24.922Z,101038.03
2023-03-19T19:22:54.943Z,101034.59
2023-03-19T19:25:27.085Z,101044.00
2023-03-19T19:28:02.896Z,101057.66
2023-03-19T19:30:34.580Z,101049.91
2023-03-19T19:33:04.722Z,101034.25
2023-03-19T19:35:37.497Z,101065.19
2023-03-19T19:38:07.256Z,101062.50
2023-03-19T19:40:37.351Z,101067.59
2023-03-19T19:43:07.192Z,101044.22
2023-03-19T19:45:40.132Z,101065.78
2023-03-19T19:48:17.550Z,101061.41
2023-03-19T19:50:50.811Z,101069.91
2023-03-19T19:53:23.845Z,101046.44
2023-03-19T19:55:56.839Z,101068.75
2023-03-19T19:58:31.049Z,101061.00
2023-03-19T20:01:04.310Z,101080.66
2023-03-19T20:03:36.139Z,101086.56
2023-03-19T20:06:08.849Z,101083.00
2023-03-19T20:08:38.542Z,101076.16
2023-03-19T20:11:17.681Z,101078.03
2023-03-19T20:13:52.057Z,101079.50
2023-03-19T20:16:22.533Z,101073.53
2023-03-19T20:18:53.906Z,101091.00
2023-03-19T20:21:26.668Z,101061.84
2023-03-19T20:23:58.911Z,101079.81
2023-03-19T20:26:28.670Z,101084.78
2023-03-19T20:28:58.356Z,101070.88
2023-03-19T20:31:30.171Z,101081.13
2023-03-19T20:34:01.025Z,101064.78
2023-03-19T20:36:33.671Z,101091.59
2023-03-19T20:39:03.724Z,101058.88
2023-03-19T20:41:33.382Z,101100.41
2023-03-19T20:44:05.722Z,101116.03
2023-03-19T20:46:35.826Z,101111.63
2023-03-19T20:49:06.408Z,101093.28
2023-03-19T20:51:39.094Z,101093.41
2023-03-19T20:54:08.729Z,101083.00
2023-03-19T20:56:40.192Z,101110.53
2023-03-19T20:59:13.945Z,101096.59
2023-03-19T21:01:44.072Z,101094.00
2023-03-19T21:04:21.175Z,101082.78
2023-03-19T21:06:54.472Z,101113.28
2023-03-19T21:09:27.406Z,101101.06
2023-03-19T21:11:57.323Z,101111.03
2023-03-19T21:14:27.582Z,101084.28
2023-03-19T21:16:57.640Z,101104.94
2023-03-19T21:19:28.700Z,101054.19
2023-03-19T21:22:00.960Z,101100.22
2023-03-19T21:24:31.301Z,101107.94
2023-03-19T21:27:03.883Z,101111.56
2023-03-19T21:29:35.906Z,101104.59
2023-03-19T21:32:05.551Z,101110.41
2023-03-19T21:34:35.550Z,101113.97
2023-03-19T21:37:08.253Z,101108.97
2023-03-19T21:39:38.409Z,101130.34
2023-03-19T21:42:10.426Z,101127.03
2023-03-19T21:44:41.141Z,101134.72
2023-03-19T21:47:14.726Z,101134.72
2023-03-19T21:49:44.411Z,101125.94
2023-03-19T21:52:19.986Z,101143.47
2023-03-19T21:54:49.891Z,101138.06
2023-03-19T21:57:19.987Z,101138.97
2023-03-19T21:59:49.902Z,101146.56
2023-03-19T22:02:41.818Z,101137.00
2023-03-19T22:05:20.024Z,101146.88
2023-03-19T22:07:52.688Z,101144.97
2023-03-19T22:10:24.725Z,101153.44
2023-03-19T22:12:54.491Z,101131.03
2023-03-19T22:15:30.410Z,101154.94
2023-03-19T22:18:00.891Z,101129.66
2023-03-19T22:20:30.946Z,101159.03
2023-03-19T22:23:03.219Z,101148.53
2023-03-19T22:25:40.669Z,101158.72
2023-03-19T22:28:19.957Z,101147.50
2023-03-19T22:30:50.462Z,101158.50
2023-03-19T22:33:21.749Z,101151.59
2023-03-19T22:35:52.628Z,101142.88
2023-03-19T22:38:25.667Z,101152.56
2023-03-19T22:40:57.353Z,101163.66
2023-03-19T22:43:31.719Z,101156.81
2023-03-19T22:46:04.278Z,101152.38
2023-03-19T22:48:34.171Z,101151.50
2023-03-19T22:51:04.231Z,101169.66
2023-03-19T22:53:39.164Z,101158.66
2023-03-19T22:56:09.388Z,101161.38
2023-03-19T22:58:39.540Z,101171.84
2023-03-19T23:01:31.088Z,101146.88
2023-03-19T23:04:19.834Z,101177.94
2023-03-19T23:06:50.019Z,101160.69
2023-03-19T23:09:24.886Z,101185.91
2023-03-19T23:11:55.010Z,101146.09
2023-03-19T23:14:30.976Z,101199.63
2023-03-19T23:17:03.885Z,101204.72
2023-03-19T23:19:35.657Z,101199.59
2023-03-19T23:22:07.307Z,101205.69
2023-03-19T23:24:39.559Z,101209.13
2023-03-19T23:27:09.275Z,101209.13
2023-03-19T23:29:43.779Z,101190.22
2023-03-19T23:32:18.505Z,101204.69
2023-03-19T23:34:58.555Z,101220.41
2023-03-19T23:37:30.147Z,101224.50
2023-03-19T23:40:02.396Z,101207.34
2023-03-19T23:42:34.553Z,101218.50
2023-03-19T23:45:06.733Z,101215.16
2023-03-19T23:47:37.043Z,101195.38
2023-03-19T23:50:07.453Z,101204.88
2023-03-19T23:52:37.076Z,101210.16
2023-03-19T23:55:10.932Z,101197.06
2023-03-19T23:57:41.954Z,101203.00
